Time;durP1;ratioP1;P1;durP2;ratioP2;P2;SDS_P1;SDS_P2;PMS_P1;PMS_P2;Temp;Humidity;BMP_temperature;BMP_pressure;BME280_temperature;BME280_humidity;BME280_pressure;Samples;Min_cycle;Max_cycle;Signal;HPM_P1;HPM_P2
2022/03/18 00:00:47;;;;;;;9.47;5.40;;;;;;;;;;4944226;28;20225;-76
2022/03/18 00:03:13;;;;;;;11.30;5.57;;;;;;;;;;4986746;28;20221;-76
2022/03/18 00:05:41;;;;;;;8.93;6.20;;;;;;;;;;4887701;28;20233;-76
2022/03/18 00:08:07;;;;;;;11.93;5.67;;;;;;;;;;4862801;29;20221;-76
2022/03/18 00:10:35;;;;;;;12.90;6.07;;;;;;;;;;4937031;28;20729;-76
2022/03/18 00:13:03;;;;;;;10.90;5.83;;;;;;;;;;4872762;28;20758;-77
2022/03/18 00:15:31;;;;;;;11.13;6.10;;;;;;;;;;4939530;28;20316;-76
2022/03/18 00:17:59;;;;;;;8.33;5.70;;;;;;;;;;4980616;28;20233;-77
2022/03/18 00:20:24;;;;;;;10.73;5.70;;;;;;;;;;4884429;28;20221;-75
2022/03/18 00:22:52;;;;;;;12.90;5.87;;;;;;;;;;4988129;28;20256;-76
2022/03/18 00:25:18;;;;;;;9.83;5.70;;;;;;;;;;4976537;28;20649;-75
2022/03/18 00:27:49;;;;;;;9.47;5.30;;;;;;;;;;4887979;29;20233;-76
2022/03/18 00:30:16;;;;;;;9.70;5.40;;;;;;;;;;4874759;29;20315;-76
2022/03/18 00:32:46;;;;;;;11.20;5.47;;;;;;;;;;4863559;29;20229;-76
2022/03/18 00:35:12;;;;;;;12.83;5.10;;;;;;;;;;4894449;28;20217;-76
2022/03/18 00:37:38;;;;;;;8.57;5.47;;;;;;;;;;4964976;28;20290;-76
2022/03/18 00:40:06;;;;;;;11.37;6.00;;;;;;;;;;4885783;28;20233;-76
2022/03/18 00:42:34;;;;;;;11.93;6.37;;;;;;;;;;4938836;28;20244;-76
2022/03/18 00:45:05;;;;;;;11.77;6.00;;;;;;;;;;4888549;29;20212;-75
2022/03/18 00:52:59;;;;;;;12.37;6.13;;;;;;;;;;4875713;29;20280;-75
2022/03/18 00:55:25;;;;;;;10.43;5.80;;;;;;;;;;4881582;28;20239;-75
2022/03/18 00:57:50;;;;;;;14.07;6.03;;;;;;;;;;4880456;28;20321;-75
2022/03/18 01:00:18;;;;;;;12.37;6.67;;;;;;;;;;4874477;29;20310;-76
2022/03/18 01:02:44;;;;;;;16.40;6.47;;;;;;;;;;4900979;28;20225;-76
2022/03/18 01:05:09;;;;;;;17.77;6.37;;;;;;;;;;4979929;28;20313;-76
2022/03/18 01:07:42;;;;;;;16.47;6.60;;;;;;;;;;4904836;28;20277;-76
2022/03/18 01:10:10;;;;;;;11.87;6.43;;;;;;;;;;4912285;28;20281;-76
2022/03/18 01:12:36;;;;;;;11.33;5.93;;;;;;;;;;4969223;28;20759;-76
2022/03/18 01:15:04;;;;;;;19.17;7.63;;;;;;;;;;4971873;28;20324;-76
2022/03/18 01:17:30;;;;;;;23.63;8.47;;;;;;;;;;4929943;28;20228;-76
2022/03/18 01:19:57;;;;;;;33.10;8.27;;;;;;;;;;4930391;28;20229;-75
2022/03/18 01:22:23;;;;;;;41.30;8.83;;;;;;;;;;4948464;28;20222;-76
2022/03/18 01:24:49;;;;;;;35.40;8.73;;;;;;;;;;4911851;28;20649;-76
2022/03/18 01:27:15;;;;;;;36.40;9.63;;;;;;;;;;4867003;29;20291;-76
2022/03/18 01:29:45;;;;;;;40.53;9.67;;;;;;;;;;4889198;29;20249;-76
2022/03/18 01:32:11;;;;;;;28.40;8.67;;;;;;;;;;4895202;28;20276;-76
2022/03/18 01:34:36;;;;;;;30.23;8.67;;;;;;;;;;4979933;28;20217;-76
2022/03/18 01:37:05;;;;;;;35.23;8.23;;;;;;;;;;4964493;28;20762;-76
2022/03/18 01:39:33;;;;;;;49.67;10.43;;;;;;;;;;4990741;28;20711;-76
2022/03/18 01:41:59;;;;;;;43.07;9.40;;;;;;;;;;4985311;28;20226;-76
2022/03/18 01:44:24;;;;;;;51.53;10.47;;;;;;;;;;4950529;28;20227;-77
2022/03/18 01:46:52;;;;;;;52.23;10.27;;;;;;;;;;4952680;28;20232;-77
2022/03/18 01:49:20;;;;;;;57.97;11.73;;;;;;;;;;4932204;28;20237;-77
2022/03/18 01:51:48;;;;;;;34.40;9.73;;;;;;;;;;4968562;28;20220;-77
2022/03/18 01:56:59;;;;;;;29.40;8.37;;;;;;;;;;4990622;28;20702;-77
2022/03/18 01:59:25;;;;;;;32.60;9.50;;;;;;;;;;4858809;28;20341;-76
2022/03/18 02:01:51;;;;;;;29.47;8.87;;;;;;;;;;4851684;29;20258;-76
2022/03/18 02:04:19;;;;;;;23.43;9.27;;;;;;;;;;4866460;29;20230;-76
2022/03/18 02:06:47;;;;;;;17.30;8.70;;;;;;;;;;4887060;28;20317;-76
2022/03/18 02:09:17;;;;;;;34.57;9.83;;;;;;;;;;4930583;28;20232;-76
2022/03/18 02:11:45;;;;;;;30.57;9.47;;;;;;;;;;4909466;28;20244;-75
2022/03/18 02:14:15;;;;;;;23.93;9.80;;;;;;;;;;4957091;28;20221;-75
2022/03/18 02:16:45;;;;;;;22.60;9.63;;;;;;;;;;4962628;28;20229;-76
2022/03/18 02:19:13;;;;;;;17.03;8.23;;;;;;;;;;4869265;28;20253;-75
2022/03/18 02:21:43;;;;;;;15.93;7.80;;;;;;;;;;4856421;29;20228;-76
2022/03/18 02:24:08;;;;;;;17.03;7.90;;;;;;;;;;4862407;28;20221;-76
2022/03/18 02:26:36;;;;;;;13.87;7.90;;;;;;;;;;4925624;28;20228;-76
2022/03/18 02:29:03;;;;;;;17.57;7.83;;;;;;;;;;4901200;28;20237;-76
2022/03/18 02:31:30;;;;;;;16.60;8.13;;;;;;;;;;4966916;28;20222;-75
2022/03/18 02:33:58;;;;;;;17.73;7.80;;;;;;;;;;4973924;28;20687;-77
2022/03/18 02:36:26;;;;;;;15.43;7.13;;;;;;;;;;4967227;28;20225;-75
2022/03/18 02:38:52;;;;;;;19.43;8.00;;;;;;;;;;4880959;29;20237;-77
2022/03/18 02:41:17;;;;;;;19.87;7.70;;;;;;;;;;4861911;28;20630;-75
2022/03/18 02:43:43;;;;;;;17.90;8.20;;;;;;;;;;4949068;28;20224;-76
2022/03/18 02:46:08;;;;;;;16.70;7.43;;;;;;;;;;4965194;28;20235;-76
2022/03/18 02:48:38;;;;;;;22.87;8.33;;;;;;;;;;4905135;28;20225;-76
2022/03/18 02:51:04;;;;;;;16.03;7.17;;;;;;;;;;4882897;29;20229;-76
2022/03/18 02:53:30;;;;;;;17.90;7.33;;;;;;;;;;4873699;29;20233;-76
2022/03/18 02:56:02;;;;;;;16.87;7.97;;;;;;;;;;4888416;29;20320;-78
2022/03/18 02:58:28;;;;;;;23.83;8.73;;;;;;;;;;4925024;28;20237;-76
2022/03/18 03:00:58;;;;;;;23.10;8.37;;;;;;;;;;4903439;28;20233;-76
2022/03/18 03:03:26;;;;;;;18.27;7.50;;;;;;;;;;4930458;28;20858;-76
2022/03/18 03:08:38;;;;;;;20.97;8.53;;;;;;;;;;4991261;28;20229;-75
2022/03/18 03:11:03;;;;;;;19.80;8.67;;;;;;;;;;4991335;28;20252;-75
2022/03/18 03:13:32;;;;;;;26.87;8.70;;;;;;;;;;4947805;28;20233;-74
2022/03/18 03:15:58;;;;;;;27.40;8.63;;;;;;;;;;4983553;28;20221;-76
2022/03/18 03:18:31;;;;;;;18.87;8.27;;;;;;;;;;4926670;28;20372;-75
2022/03/18 03:20:59;;;;;;;20.37;8.47;;;;;;;;;;4938408;28;20226;-76
2022/03/18 03:23:25;;;;;;;20.43;7.60;;;;;;;;;;4876372;28;20300;-75
2022/03/18 03:25:54;;;;;;;20.27;8.43;;;;;;;;;;4972552;28;20262;-75
2022/03/18 03:28:21;;;;;;;17.03;8.23;;;;;;;;;;4953099;28;20242;-76
2022/03/18 03:30:50;;;;;;;23.10;9.43;;;;;;;;;;4883223;28;20234;-75
2022/03/18 03:33:20;;;;;;;22.33;8.97;;;;;;;;;;4887033;29;20715;-75
2022/03/18 03:35:45;;;;;;;18.30;8.30;;;;;;;;;;4872483;29;20751;-75
2022/03/18 03:38:14;;;;;;;18.90;7.97;;;;;;;;;;4876607;28;20240;-74
2022/03/18 03:40:40;;;;;;;16.83;6.93;;;;;;;;;;4964890;28;20229;-75
2022/03/18 03:43:09;;;;;;;15.80;7.50;;;;;;;;;;4970809;28;20233;-77
2022/03/18 03:45:42;;;;;;;18.00;7.20;;;;;;;;;;5004663;28;20228;-76
2022/03/18 03:48:11;;;;;;;19.20;7.87;;;;;;;;;;4906890;28;20667;-76
2022/03/18 03:50:41;;;;;;;15.23;7.00;;;;;;;;;;4965431;28;20249;-76
2022/03/18 03:53:09;;;;;;;15.07;7.67;;;;;;;;;;4965582;28;20280;-76
2022/03/18 03:55:39;;;;;;;15.40;7.13;;;;;;;;;;4899166;28;20236;-76
2022/03/18 03:58:08;;;;;;;12.47;7.20;;;;;;;;;;4929810;28;20229;-76
2022/03/18 04:00:38;;;;;;;13.67;7.27;;;;;;;;;;4920829;28;20230;-76
2022/03/18 04:03:04;;;;;;;14.77;6.87;;;;;;;;;;4873668;28;20233;-77
2022/03/18 04:05:31;;;;;;;11.93;6.40;;;;;;;;;;4971676;28;20236;-77
2022/03/18 04:07:59;;;;;;;13.73;6.77;;;;;;;;;;4891929;28;20257;-77
2022/03/18 04:10:25;;;;;;;15.67;7.60;;;;;;;;;;4944681;28;20231;-77
2022/03/18 04:12:53;;;;;;;14.70;6.67;;;;;;;;;;5003470;28;20316;-75
2022/03/18 04:15:23;;;;;;;12.60;6.30;;;;;;;;;;4987772;28;20254;-76
2022/03/18 04:17:53;;;;;;;11.07;6.17;;;;;;;;;;4946020;28;20229;-76
2022/03/18 04:20:21;;;;;;;13.93;6.27;;;;;;;;;;4981136;28;20236;-75
2022/03/18 04:22:52;;;;;;;16.23;7.03;;;;;;;;;;4979641;28;20304;-75
2022/03/18 04:25:18;;;;;;;16.93;7.07;;;;;;;;;;4959110;28;20218;-75
2022/03/18 04:27:46;;;;;;;17.40;6.90;;;;;;;;;;4902414;28;20694;-75
2022/03/18 04:30:12;;;;;;;15.87;6.93;;;;;;;;;;4968651;28;20239;-75
2022/03/18 04:32:38;;;;;;;13.97;6.63;;;;;;;;;;4971380;28;20229;-75
2022/03/18 04:35:06;;;;;;;16.97;6.97;;;;;;;;;;4964615;28;20253;-75
2022/03/18 04:37:32;;;;;;;18.10;6.53;;;;;;;;;;4979470;28;20221;-75
2022/03/18 04:39:57;;;;;;;10.57;5.90;;;;;;;;;;4973259;28;20313;-75
2022/03/18 04:42:25;;;;;;;15.17;6.50;;;;;;;;;;4956422;28;20717;-76
2022/03/18 04:44:53;;;;;;;11.37;6.20;;;;;;;;;;4963172;28;20241;-74
2022/03/18 04:47:23;;;;;;;16.40;6.30;;;;;;;;;;4941837;28;20733;-74
2022/03/18 04:49:51;;;;;;;18.33;5.90;;;;;;;;;;4986944;28;20688;-75
2022/03/18 04:52:19;;;;;;;11.30;6.40;;;;;;;;;;4953911;28;20230;-74
2022/03/18 04:54:44;;;;;;;17.07;6.53;;;;;;;;;;4943654;28;20256;-74
2022/03/18 04:57:16;;;;;;;15.23;6.43;;;;;;;;;;4866411;28;20251;-74
2022/03/18 04:59:49;;;;;;;18.43;6.50;;;;;;;;;;4892603;28;20230;-74
2022/03/18 05:02:15;;;;;;;11.73;6.30;;;;;;;;;;4905649;28;20225;-75
2022/03/18 05:04:44;;;;;;;12.30;5.80;;;;;;;;;;4984555;28;20630;-74
2022/03/18 05:07:11;;;;;;;14.20;6.53;;;;;;;;;;4970794;28;20236;-74
2022/03/18 05:09:40;;;;;;;12.67;6.80;;;;;;;;;;4958669;28;20233;-74
2022/03/18 05:12:10;;;;;;;14.67;6.80;;;;;;;;;;4972605;28;20229;-74
2022/03/18 05:14:37;;;;;;;17.43;10.93;;;;;;;;;;4906363;28;20240;-75
2022/03/18 05:17:03;;;;;;;18.97;10.30;;;;;;;;;;4902569;28;20248;-75
2022/03/18 05:19:34;;;;;;;17.33;9.27;;;;;;;;;;4954856;28;20775;-74
2022/03/18 05:22:02;;;;;;;16.20;7.50;;;;;;;;;;4952023;28;20348;-74
2022/03/18 05:24:30;;;;;;;18.77;7.23;;;;;;;;;;4967273;28;20248;-74
2022/03/18 05:26:56;;;;;;;18.20;6.67;;;;;;;;;;4880275;28;20230;-74
2022/03/18 05:29:25;;;;;;;15.03;7.60;;;;;;;;;;4885310;28;20221;-75
2022/03/18 05:31:54;;;;;;;13.07;7.30;;;;;;;;;;4884185;28;21063;-74
2022/03/18 05:34:20;;;;;;;12.47;7.73;;;;;;;;;;4874793;29;20221;-75
2022/03/18 05:36:49;;;;;;;14.57;7.73;;;;;;;;;;4859770;29;20233;-74
2022/03/18 05:39:17;;;;;;;15.63;7.30;;;;;;;;;;4875458;29;20605;-75
2022/03/18 05:41:47;;;;;;;15.10;8.47;;;;;;;;;;4911429;28;20257;-76
2022/03/18 05:44:15;;;;;;;22.53;10.67;;;;;;;;;;4983210;28;20213;-75
2022/03/18 05:46:41;;;;;;;14.33;9.60;;;;;;;;;;4924522;28;20228;-75
2022/03/18 05:49:09;;;;;;;19.37;11.27;;;;;;;;;;4968296;28;20727;-75
2022/03/18 05:51:37;;;;;;;19.03;10.80;;;;;;;;;;4958132;28;20221;-75
2022/03/18 05:54:05;;;;;;;17.67;9.90;;;;;;;;;;4906040;28;20260;-75
2022/03/18 05:59:18;;;;;;;15.10;9.20;;;;;;;;;;4985329;28;20229;-75
2022/03/18 06:01:44;;;;;;;15.90;9.33;;;;;;;;;;4941035;28;20269;-75
2022/03/18 06:04:14;;;;;;;13.00;6.93;;;;;;;;;;4963968;28;20225;-75
2022/03/18 06:06:42;;;;;;;11.27;6.40;;;;;;;;;;4921329;28;20249;-75
2022/03/18 06:11:57;;;;;;;15.00;7.53;;;;;;;;;;4871898;29;20589;-76
2022/03/18 06:14:26;;;;;;;17.07;8.13;;;;;;;;;;4870709;28;20289;-75
2022/03/18 06:16:56;;;;;;;17.10;8.57;;;;;;;;;;4951976;28;20988;-75
2022/03/18 06:19:22;;;;;;;16.13;8.90;;;;;;;;;;4976731;28;20225;-76
2022/03/18 06:21:48;;;;;;;12.93;7.80;;;;;;;;;;4942874;28;20228;-75
2022/03/18 06:24:14;;;;;;;13.40;7.07;;;;;;;;;;4890594;28;20230;-76
2022/03/18 06:26:44;;;;;;;10.70;6.87;;;;;;;;;;4887277;28;20562;-76
2022/03/18 06:29:09;;;;;;;14.43;7.07;;;;;;;;;;4857959;29;20250;-77
2022/03/18 06:31:39;;;;;;;14.70;8.30;;;;;;;;;;4843300;29;20519;-77
2022/03/18 06:34:09;;;;;;;16.77;6.90;;;;;;;;;;4872062;29;20218;-76
2022/03/18 06:36:38;;;;;;;12.10;6.90;;;;;;;;;;4914834;28;20253;-75
2022/03/18 06:39:04;;;;;;;13.83;6.20;;;;;;;;;;4926526;28;20225;-74
2022/03/18 06:41:30;;;;;;;11.37;6.17;;;;;;;;;;4949105;28;20236;-75
2022/03/18 06:43:58;;;;;;;15.53;6.10;;;;;;;;;;4912391;28;20240;-74
2022/03/18 06:46:24;;;;;;;10.50;6.00;;;;;;;;;;4884248;29;20234;-74
2022/03/18 06:48:51;;;;;;;11.20;5.90;;;;;;;;;;4853701;29;20237;-75
2022/03/18 06:51:19;;;;;;;9.90;5.57;;;;;;;;;;4856066;28;20253;-75
2022/03/18 06:53:45;;;;;;;13.57;5.80;;;;;;;;;;4948961;28;20768;-76
2022/03/18 06:56:12;;;;;;;14.03;5.80;;;;;;;;;;4972491;28;20279;-76
2022/03/18 06:58:39;;;;;;;11.27;5.30;;;;;;;;;;4980564;28;20317;-75
2022/03/18 07:01:05;;;;;;;11.50;5.40;;;;;;;;;;4987986;28;20218;-75
2022/03/18 07:03:30;;;;;;;9.10;5.03;;;;;;;;;;4973747;28;20248;-75
2022/03/18 07:05:56;;;;;;;11.47;5.10;;;;;;;;;;4983120;28;20272;-75
2022/03/18 07:08:21;;;;;;;12.33;5.43;;;;;;;;;;4951918;28;20240;-75
2022/03/18 07:10:49;;;;;;;11.47;4.77;;;;;;;;;;4888313;29;20248;-75
2022/03/18 07:13:15;;;;;;;13.60;5.10;;;;;;;;;;4894184;28;20229;-75
2022/03/18 07:15:41;;;;;;;11.00;5.60;;;;;;;;;;4991699;28;20304;-74
2022/03/18 07:18:09;;;;;;;13.93;7.40;;;;;;;;;;4943119;28;20236;-75
2022/03/18 07:20:36;;;;;;;45.33;30.83;;;;;;;;;;4930171;28;20232;-74
2022/03/18 07:23:14;;;;;;;21.27;16.07;;;;;;;;;;4931883;28;20222;-75
2022/03/18 07:25:47;;;;;;;30.17;23.40;;;;;;;;;;4976980;28;20307;-74
2022/03/18 07:28:13;;;;;;;38.53;28.87;;;;;;;;;;4984299;28;20235;-74
2022/03/18 07:30:42;;;;;;;30.97;20.17;;;;;;;;;;4991840;28;20239;-74
2022/03/18 07:33:10;;;;;;;23.23;14.30;;;;;;;;;;4984424;28;20233;-75
2022/03/18 07:35:42;;;;;;;20.20;11.93;;;;;;;;;;5016536;28;20222;-75
2022/03/18 07:38:09;;;;;;;22.43;13.77;;;;;;;;;;4912375;28;20231;-75
2022/03/18 07:40:38;;;;;;;22.90;15.10;;;;;;;;;;4972250;28;20253;-75
2022/03/18 07:43:05;;;;;;;28.73;17.87;;;;;;;;;;4887494;28;20239;-75
2022/03/18 07:45:35;;;;;;;22.47;14.93;;;;;;;;;;4957697;28;20755;-74
2022/03/18 07:48:09;;;;;;;17.27;12.60;;;;;;;;;;4853627;29;20222;-74
2022/03/18 07:50:39;;;;;;;18.90;10.93;;;;;;;;;;4879527;28;20244;-74
2022/03/18 07:53:08;;;;;;;15.90;9.47;;;;;;;;;;4876533;28;20229;-74
2022/03/18 07:55:37;;;;;;;14.07;9.33;;;;;;;;;;4864253;29;20225;-74
2022/03/18 07:58:02;;;;;;;16.67;10.77;;;;;;;;;;4883610;29;20225;-74
2022/03/18 08:00:30;;;;;;;19.40;13.43;;;;;;;;;;4870283;28;20656;-74
2022/03/18 08:02:56;;;;;;;20.57;14.17;;;;;;;;;;4920751;28;20225;-74
2022/03/18 08:05:22;;;;;;;18.37;12.73;;;;;;;;;;4968005;28;20828;-74
2022/03/18 08:07:49;;;;;;;18.40;11.17;;;;;;;;;;4918444;28;20224;-75
2022/03/18 08:10:15;;;;;;;15.10;9.27;;;;;;;;;;4977024;28;20224;-74
2022/03/18 08:12:42;;;;;;;16.67;9.60;;;;;;;;;;4944429;28;20228;-74
2022/03/18 08:15:11;;;;;;;19.00;10.03;;;;;;;;;;4926125;28;20224;-74
2022/03/18 08:17:40;;;;;;;16.73;10.07;;;;;;;;;;4890504;29;20225;-74
2022/03/18 08:20:10;;;;;;;18.00;9.73;;;;;;;;;;4905521;29;20237;-74
2022/03/18 08:22:38;;;;;;;15.20;9.53;;;;;;;;;;4936427;28;20481;-75
2022/03/18 08:25:05;;;;;;;14.70;9.73;;;;;;;;;;5008419;28;20252;-74
2022/03/18 08:27:35;;;;;;;20.57;9.10;;;;;;;;;;4933754;28;20226;-75
2022/03/18 08:30:01;;;;;;;15.83;9.40;;;;;;;;;;4977688;28;20348;-74
2022/03/18 08:32:27;;;;;;;18.33;9.43;;;;;;;;;;4993910;28;20229;-75
2022/03/18 08:34:53;;;;;;;13.43;8.73;;;;;;;;;;4885920;28;20276;-75
2022/03/18 08:40:11;;;;;;;15.40;9.20;;;;;;;;;;4882216;29;20704;-75
2022/03/18 08:42:37;;;;;;;14.77;7.73;;;;;;;;;;4879804;29;20711;-75
2022/03/18 08:45:03;;;;;;;15.70;7.67;;;;;;;;;;4880405;29;20232;-75
2022/03/18 08:47:31;;;;;;;12.43;7.73;;;;;;;;;;4905802;29;20229;-75
2022/03/18 08:49:56;;;;;;;14.33;8.30;;;;;;;;;;4881963;28;20234;-75
2022/03/18 08:52:22;;;;;;;17.10;10.23;;;;;;;;;;4903373;28;20236;-75
2022/03/18 08:54:50;;;;;;;13.83;8.33;;;;;;;;;;4969630;28;20248;-75
2022/03/18 08:57:18;;;;;;;11.97;7.43;;;;;;;;;;4948574;28;20227;-75
2022/03/18 08:59:43;;;;;;;16.43;6.60;;;;;;;;;;4894742;28;20784;-76
2022/03/18 09:02:09;;;;;;;12.30;6.03;;;;;;;;;;4886719;28;20230;-75
2022/03/18 09:04:39;;;;;;;14.87;6.00;;;;;;;;;;4863802;29;20226;-75
2022/03/18 09:07:05;;;;;;;11.13;6.00;;;;;;;;;;4865987;28;20237;-74
2022/03/18 09:09:30;;;;;;;12.63;5.43;;;;;;;;;;4955576;28;20257;-76
2022/03/18 09:11:56;;;;;;;11.40;5.13;;;;;;;;;;4999733;28;20217;-74
2022/03/18 09:14:23;;;;;;;12.83;5.57;;;;;;;;;;4977905;28;21366;-74
2022/03/18 09:16:49;;;;;;;12.83;5.67;;;;;;;;;;5010176;28;20313;-75
2022/03/18 09:19:17;;;;;;;11.10;4.90;;;;;;;;;;4923877;28;20237;-75
2022/03/18 09:21:45;;;;;;;11.53;5.13;;;;;;;;;;4915275;29;20323;-74
2022/03/18 09:24:11;;;;;;;12.53;5.13;;;;;;;;;;4882474;28;20761;-75
2022/03/18 09:26:42;;;;;;;11.43;5.00;;;;;;;;;;4965500;28;20800;-75
2022/03/18 09:29:07;;;;;;;11.00;5.07;;;;;;;;;;4957797;28;20225;-75
2022/03/18 09:31:36;;;;;;;12.30;5.30;;;;;;;;;;4924573;28;20233;-75
2022/03/18 09:34:02;;;;;;;11.87;5.07;;;;;;;;;;4972619;28;20217;-75
2022/03/18 09:36:27;;;;;;;10.70;5.10;;;;;;;;;;4987031;28;20221;-75
2022/03/18 09:38:54;;;;;;;12.47;5.17;;;;;;;;;;4966473;28;20225;-77
2022/03/18 09:41:25;;;;;;;10.33;5.30;;;;;;;;;;4950871;28;20217;-75
2022/03/18 09:43:54;;;;;;;11.47;5.10;;;;;;;;;;4897435;28;20232;-75
2022/03/18 09:46:19;;;;;;;10.17;4.93;;;;;;;;;;4866871;29;20823;-74
2022/03/18 09:48:47;;;;;;;9.97;5.23;;;;;;;;;;4889857;28;20310;-74
2022/03/18 09:51:12;;;;;;;12.70;5.27;;;;;;;;;;4948529;28;20228;-75
2022/03/18 09:53:38;;;;;;;14.03;5.10;;;;;;;;;;5010221;28;20725;-75
2022/03/18 09:56:06;;;;;;;8.90;5.10;;;;;;;;;;4962786;28;20225;-74
2022/03/18 09:58:32;;;;;;;13.17;5.37;;;;;;;;;;4994303;28;20234;-73
2022/03/18 10:01:01;;;;;;;10.03;4.97;;;;;;;;;;4986177;28;20741;-75
2022/03/18 10:03:40;;;;;;;11.83;5.30;;;;;;;;;;4934800;28;20232;-74
2022/03/18 10:06:05;;;;;;;10.90;4.90;;;;;;;;;;4957551;28;20253;-75
2022/03/18 10:08:39;;;;;;;13.87;5.00;;;;;;;;;;4931961;28;20261;-75
2022/03/18 10:11:19;;;;;;;9.20;4.63;;;;;;;;;;4923039;28;20220;-75
2022/03/18 10:13:56;;;;;;;11.47;4.70;;;;;;;;;;4943003;28;20221;-74
2022/03/18 10:16:41;;;;;;;11.63;4.60;;;;;;;;;;4886216;28;20264;-75
2022/03/18 10:19:23;;;;;;;9.73;4.23;;;;;;;;;;4969224;28;20289;-75
2022/03/18 10:21:50;;;;;;;9.33;4.30;;;;;;;;;;4900783;28;20388;-75
2022/03/18 10:24:16;;;;;;;10.73;4.37;;;;;;;;;;4875271;28;20694;-74
2022/03/18 10:26:42;;;;;;;8.80;4.33;;;;;;;;;;4986977;28;20308;-75
2022/03/18 10:29:15;;;;;;;10.73;4.50;;;;;;;;;;4991625;28;20327;-74
2022/03/18 10:31:45;;;;;;;13.13;4.63;;;;;;;;;;4985519;28;20248;-75
2022/03/18 10:37:12;;;;;;;8.37;4.23;;;;;;;;;;4933918;28;20233;-75
2022/03/18 10:39:39;;;;;;;10.17;4.00;;;;;;;;;;4957892;28;20229;-74
2022/03/18 10:42:11;;;;;;;8.97;4.50;;;;;;;;;;4876342;28;20617;-74
2022/03/18 10:44:57;;;;;;;10.33;4.23;;;;;;;;;;4969557;28;20221;-75
2022/03/18 10:47:29;;;;;;;11.10;4.67;;;;;;;;;;4973421;28;20237;-74
2022/03/18 10:50:13;;;;;;;10.40;4.30;;;;;;;;;;4954358;28;20786;-75
2022/03/18 10:53:01;;;;;;;9.53;4.07;;;;;;;;;;4936303;28;20252;-74
2022/03/18 10:55:53;;;;;;;11.60;4.27;;;;;;;;;;4959099;28;20232;-75
2022/03/18 10:58:20;;;;;;;8.73;3.67;;;;;;;;;;4990872;28;20225;-74
2022/03/18 11:00:48;;;;;;;8.00;3.80;;;;;;;;;;4993492;28;20320;-74
2022/03/18 11:03:14;;;;;;;9.60;3.93;;;;;;;;;;4882046;28;20222;-74
2022/03/18 11:05:47;;;;;;;6.43;3.60;;;;;;;;;;4995854;28;20304;-76
2022/03/18 11:08:21;;;;;;;9.37;3.80;;;;;;;;;;4926769;28;20851;-75
2022/03/18 11:14:08;;;;;;;7.67;3.60;;;;;;;;;;4931155;28;20225;-75
2022/03/18 11:16:38;;;;;;;9.37;4.33;;;;;;;;;;4990008;28;20235;-75
2022/03/18 11:19:09;;;;;;;8.13;3.73;;;;;;;;;;4965051;28;20245;-75
2022/03/18 11:21:40;;;;;;;9.10;3.97;;;;;;;;;;4893960;28;20237;-75
2022/03/18 11:24:09;;;;;;;8.53;3.53;;;;;;;;;;4870041;29;20790;-74
2022/03/18 11:26:35;;;;;;;7.20;3.40;;;;;;;;;;4883632;28;20225;-75
2022/03/18 11:29:20;;;;;;;7.60;3.60;;;;;;;;;;4983666;28;20272;-75
2022/03/18 11:32:12;;;;;;;9.60;3.70;;;;;;;;;;4917630;28;20991;-75
2022/03/18 11:34:52;;;;;;;7.87;3.63;;;;;;;;;;4967292;28;20230;-75
2022/03/18 11:37:20;;;;;;;7.50;3.30;;;;;;;;;;5003874;28;20222;-75
2022/03/18 11:39:50;;;;;;;8.07;3.67;;;;;;;;;;4991806;28;20271;-75
2022/03/18 11:42:19;;;;;;;6.47;3.43;;;;;;;;;;4957177;28;20226;-76
2022/03/18 11:44:49;;;;;;;6.87;3.77;;;;;;;;;;4895911;28;20222;-75
2022/03/18 11:47:20;;;;;;;7.00;3.50;;;;;;;;;;4866276;29;20632;-74
2022/03/18 11:49:51;;;;;;;6.40;3.03;;;;;;;;;;4853430;29;20234;-75
2022/03/18 11:52:18;;;;;;;8.47;3.37;;;;;;;;;;4895171;28;20229;-74
2022/03/18 11:55:00;;;;;;;6.57;3.30;;;;;;;;;;4903590;28;20225;-75
2022/03/18 11:57:38;;;;;;;7.57;3.60;;;;;;;;;;4986539;28;20232;-73
2022/03/18 12:00:10;;;;;;;8.03;3.20;;;;;;;;;;4882980;28;20237;-72
2022/03/18 12:02:38;;;;;;;6.57;2.83;;;;;;;;;;4864571;29;20230;-72
2022/03/18 12:05:07;;;;;;;10.20;3.50;;;;;;;;;;4927047;28;20213;-73
2022/03/18 12:07:51;;;;;;;5.70;3.20;;;;;;;;;;4942209;28;20252;-73
2022/03/18 12:10:35;;;;;;;6.30;3.07;;;;;;;;;;4897627;28;20313;-74
2022/03/18 12:13:03;;;;;;;8.13;3.57;;;;;;;;;;4905995;28;20253;-73
2022/03/18 12:15:32;;;;;;;7.63;3.37;;;;;;;;;;4867346;29;20226;-72
2022/03/18 12:17:58;;;;;;;8.03;3.37;;;;;;;;;;4868968;28;20225;-73
2022/03/18 12:20:27;;;;;;;7.27;3.23;;;;;;;;;;4936208;28;20280;-73
2022/03/18 12:22:58;;;;;;;9.77;3.90;;;;;;;;;;4955808;28;20240;-73
2022/03/18 12:25:26;;;;;;;8.73;3.53;;;;;;;;;;4869415;28;20249;-72
2022/03/18 12:27:55;;;;;;;5.17;3.07;;;;;;;;;;4917307;28;20230;-74
2022/03/18 12:30:25;;;;;;;13.77;3.77;;;;;;;;;;4869536;28;20613;-73
2022/03/18 12:32:52;;;;;;;8.20;3.40;;;;;;;;;;4886560;28;20255;-74
2022/03/18 12:35:18;;;;;;;9.77;3.83;;;;;;;;;;4974951;28;20313;-75
2022/03/18 12:37:46;;;;;;;7.53;3.53;;;;;;;;;;4914408;28;20225;-74
2022/03/18 12:40:19;;;;;;;7.37;3.33;;;;;;;;;;4975876;28;20742;-74
2022/03/18 12:43:01;;;;;;;6.57;3.10;;;;;;;;;;4912811;28;20229;-74
2022/03/18 12:45:45;;;;;;;5.87;3.33;;;;;;;;;;4941117;28;20222;-73
2022/03/18 12:48:13;;;;;;;7.77;3.10;;;;;;;;;;4928438;28;20217;-75
2022/03/18 12:50:49;;;;;;;6.53;3.40;;;;;;;;;;4963599;28;20233;-73
2022/03/18 12:53:21;;;;;;;5.80;3.20;;;;;;;;;;4985319;28;20355;-73
2022/03/18 12:55:51;;;;;;;7.53;3.10;;;;;;;;;;4911747;28;20233;-75
2022/03/18 12:58:38;;;;;;;5.47;3.13;;;;;;;;;;4929258;28;20280;-73
2022/03/18 13:01:11;;;;;;;6.20;3.10;;;;;;;;;;4964839;28;20231;-74
2022/03/18 13:03:47;;;;;;;6.93;3.27;;;;;;;;;;4927394;28;20232;-72
2022/03/18 13:06:20;;;;;;;7.30;3.60;;;;;;;;;;4977786;28;20644;-75
2022/03/18 13:09:03;;;;;;;5.80;3.30;;;;;;;;;;4899318;28;20221;-73
2022/03/18 13:11:33;;;;;;;8.53;3.27;;;;;;;;;;4865641;29;20943;-74
2022/03/18 13:13:58;;;;;;;7.43;3.43;;;;;;;;;;4860529;29;20233;-72
2022/03/18 13:16:35;;;;;;;7.20;3.30;;;;;;;;;;4904717;28;20288;-72
2022/03/18 13:19:04;;;;;;;7.17;3.20;;;;;;;;;;4873775;29;20316;-72
2022/03/18 13:21:38;;;;;;;5.80;3.37;;;;;;;;;;4928547;28;20384;-72
2022/03/18 13:24:07;;;;;;;7.20;3.33;;;;;;;;;;4897370;28;20273;-72
2022/03/18 13:26:37;;;;;;;6.90;3.10;;;;;;;;;;4966399;28;20582;-72
2022/03/18 13:29:03;;;;;;;5.90;3.40;;;;;;;;;;4966066;28;20225;-71
2022/03/18 13:34:35;;;;;;;6.13;3.37;;;;;;;;;;4937392;28;20224;-73
2022/03/18 13:37:11;;;;;;;5.93;3.43;;;;;;;;;;4979928;28;20237;-73
2022/03/18 13:39:39;;;;;;;7.53;2.90;;;;;;;;;;4926527;28;20240;-73
2022/03/18 13:42:07;;;;;;;7.33;3.20;;;;;;;;;;4954004;28;20222;-71
2022/03/18 13:44:51;;;;;;;7.40;3.40;;;;;;;;;;4928141;28;20231;-72
2022/03/18 13:47:16;;;;;;;8.63;3.13;;;;;;;;;;4863635;28;20226;-75
2022/03/18 13:49:56;;;;;;;6.10;3.07;;;;;;;;;;4869846;28;20245;-73
2022/03/18 13:52:36;;;;;;;6.43;3.00;;;;;;;;;;4876651;28;20218;-74
2022/03/18 13:55:02;;;;;;;6.60;3.00;;;;;;;;;;4991388;28;20232;-73
2022/03/18 13:57:44;;;;;;;5.88;3.47;;;;;;;;;;4990983;28;20291;-72
2022/03/18 14:00:10;;;;;;;7.15;3.17;;;;;;;;;;4903591;28;20324;-73
2022/03/18 14:02:40;;;;;;;6.50;3.15;;;;;;;;;;4949345;28;20308;-72
2022/03/18 14:05:08;;;;;;;5.85;2.70;;;;;;;;;;4991651;28;20511;-73
2022/03/18 14:07:49;;;;;;;8.98;2.45;;;;;;;;;;4925729;28;20230;-74
2022/03/18 14:10:18;;;;;;;5.90;2.17;;;;;;;;;;4891910;28;20230;-74
2022/03/18 14:13:06;;;;;;;5.00;2.07;;;;;;;;;;4989473;28;20336;-73
2022/03/18 14:15:41;;;;;;;4.20;2.00;;;;;;;;;;4971880;28;20307;-73
2022/03/18 14:18:11;;;;;;;4.80;2.30;;;;;;;;;;4960400;28;20284;-74
2022/03/18 14:21:19;;;;;;;7.00;2.50;;;;;;;;;;5012972;28;20225;-73
2022/03/18 14:23:45;;;;;;;6.07;2.40;;;;;;;;;;4950650;28;20365;-72
2022/03/18 14:36:59;;;;;;;6.37;2.20;;;;;;;;;;5095739;28;20769;-74
2022/03/18 14:43:09;;;;;;;6.97;2.50;;;;;;;;;;5104202;28;20240;-73
2022/03/18 14:45:37;;;;;;;7.57;3.10;;;;;;;;;;5051104;28;20216;-74
2022/03/18 14:48:04;;;;;;;4.57;2.50;;;;;;;;;;5016795;28;20222;-73
2022/03/18 14:50:29;;;;;;;5.10;2.80;;;;;;;;;;5062655;28;20226;-76
2022/03/18 14:52:57;;;;;;;7.20;2.83;;;;;;;;;;5066886;28;20289;-72
2022/03/18 14:58:13;;;;;;;6.87;2.77;;;;;;;;;;5058863;28;20236;-73
2022/03/18 15:00:39;;;;;;;7.22;2.75;;;;;;;;;;5087269;28;20232;-73
2022/03/18 15:03:04;;;;;;;7.23;2.67;;;;;;;;;;5086148;28;20225;-71
2022/03/18 15:05:34;;;;;;;5.27;2.33;;;;;;;;;;5090544;28;20225;-75
2022/03/18 15:08:00;;;;;;;5.83;2.37;;;;;;;;;;5086676;28;20317;-73
2022/03/18 15:10:28;;;;;;;6.07;2.47;;;;;;;;;;5068970;28;20865;-73
2022/03/18 15:12:53;;;;;;;5.53;2.27;;;;;;;;;;5104898;28;20210;-72
2022/03/18 15:15:19;;;;;;;5.27;2.23;;;;;;;;;;5108033;28;20784;-73
2022/03/18 15:17:48;;;;;;;5.47;2.10;;;;;;;;;;5101973;28;20213;-72
2022/03/18 15:20:13;;;;;;;6.53;2.50;;;;;;;;;;5070309;28;20213;-73
2022/03/18 15:22:39;;;;;;;5.70;2.40;;;;;;;;;;5060847;28;20209;-73
2022/03/18 15:25:05;;;;;;;5.17;2.17;;;;;;;;;;5080289;28;20217;-73
2022/03/18 15:27:33;;;;;;;4.90;2.57;;;;;;;;;;5069396;28;20236;-73
2022/03/18 15:29:59;;;;;;;8.17;2.90;;;;;;;;;;5104481;28;20221;-73